sensor_id;sensor_type;location;lat;lon;timestamp;temperature;humidity
17992;DHT22;9121;50.926;5.340;2023-07-20T00:00:59;18.20;99.90
17992;DHT22;9121;50.926;5.340;2023-07-20T00:03:26;18.20;99.90
17992;DHT22;9121;50.926;5.340;2023-07-20T00:05:53;18.20;99.90
17992;DHT22;9121;50.926;5.340;2023-07-20T00:08:21;18.10;99.90
17992;DHT22;9121;50.926;5.340;2023-07-20T00:10:48;18.00;99.90
17992;DHT22;9121;50.926;5.340;2023-07-20T00:13:15;18.00;99.90
17992;DHT22;9121;50.926;5.340;2023-07-20T00:15:44;17.90;99.90
17992;DHT22;9121;50.926;5.340;2023-07-20T00:18:11;17.90;99.90
17992;DHT22;9121;50.926;5.340;2023-07-20T00:20:38;17.80;99.90
17992;DHT22;9121;50.926;5.340;2023-07-20T00:23:05;17.80;99.90
17992;DHT22;9121;50.926;5.340;2023-07-20T00:25:34;17.90;99.90
17992;DHT22;9121;50.926;5.340;2023-07-20T00:28:01;17.90;99.90
17992;DHT22;9121;50.926;5.340;2023-07-20T00:30:28;17.80;99.90
17992;DHT22;9121;50.926;5.340;2023-07-20T00:32:55;17.80;99.90
17992;DHT22;9121;50.926;5.340;2023-07-20T00:35:22;17.90;99.90
17992;DHT22;9121;50.926;5.340;2023-07-20T00:37:49;17.90;99.90
17992;DHT22;9121;50.926;5.340;2023-07-20T00:40:16;17.90;99.90
17992;DHT22;9121;50.926;5.340;2023-07-20T00:42:44;17.90;99.90
17992;DHT22;9121;50.926;5.340;2023-07-20T00:45:11;17.90;99.90
17992;DHT22;9121;50.926;5.340;2023-07-20T00:47:38;17.90;99.90
17992;DHT22;9121;50.926;5.340;2023-07-20T00:50:06;17.90;99.90
17992;DHT22;9121;50.926;5.340;2023-07-20T00:52:34;17.90;99.90
17992;DHT22;9121;50.926;5.340;2023-07-20T00:55:01;17.80;99.90
17992;DHT22;9121;50.926;5.340;2023-07-20T00:57:28;17.80;99.90
17992;DHT22;9121;50.926;5.340;2023-07-20T00:59:57;17.90;99.90
17992;DHT22;9121;50.926;5.340;2023-07-20T01:02:24;17.80;99.90
17992;DHT22;9121;50.926;5.340;2023-07-20T01:04:51;17.80;99.90
17992;DHT22;9121;50.926;5.340;2023-07-20T01:07:24;17.70;99.90
17992;DHT22;9121;50.926;5.340;2023-07-20T01:09:59;17.70;99.90
17992;DHT22;9121;50.926;5.340;2023-07-20T01:12:32;17.70;99.90
17992;DHT22;9121;50.926;5.340;2023-07-20T01:15:04;17.70;99.90
17992;DHT22;9121;50.926;5.340;2023-07-20T01:17:33;17.70;99.90
17992;DHT22;9121;50.926;5.340;2023-07-20T01:20:00;17.70;99.90
17992;DHT22;9121;50.926;5.340;2023-07-20T01:22:50;17.70;99.90
17992;DHT22;9121;50.926;5.340;2023-07-20T01:25:31;17.70;99.90
17992;DHT22;9121;50.926;5.340;2023-07-20T01:28:31;17.70;99.90
17992;DHT22;9121;50.926;5.340;2023-07-20T01:31:20;17.70;99.90
17992;DHT22;9121;50.926;5.340;2023-07-20T01:33:49;17.60;99.90
17992;DHT22;9121;50.926;5.340;2023-07-20T01:36:17;17.60;99.90
17992;DHT22;9121;50.926;5.340;2023-07-20T01:38:45;17.60;99.90
17992;DHT22;9121;50.926;5.340;2023-07-20T01:41:13;17.60;99.90
17992;DHT22;9121;50.926;5.340;2023-07-20T01:43:41;17.70;99.90
17992;DHT22;9121;50.926;5.340;2023-07-20T01:46:10;17.70;99.90
17992;DHT22;9121;50.926;5.340;2023-07-20T01:48:37;17.60;99.90
17992;DHT22;9121;50.926;5.340;2023-07-20T01:51:04;17.60;99.90
17992;DHT22;9121;50.926;5.340;2023-07-20T01:53:31;17.60;99.90
17992;DHT22;9121;50.926;5.340;2023-07-20T01:55:57;17.60;99.90
17992;DHT22;9121;50.926;5.340;2023-07-20T01:58:24;17.50;99.90
17992;DHT22;9121;50.926;5.340;2023-07-20T02:00:51;17.50;99.90
17992;DHT22;9121;50.926;5.340;2023-07-20T02:03:20;17.50;99.90
17992;DHT22;9121;50.926;5.340;2023-07-20T02:05:49;17.50;99.90
17992;DHT22;9121;50.926;5.340;2023-07-20T02:08:16;17.40;99.90
17992;DHT22;9121;50.926;5.340;2023-07-20T02:10:45;17.30;99.90
17992;DHT22;9121;50.926;5.340;2023-07-20T02:13:12;17.30;99.90
17992;DHT22;9121;50.926;5.340;2023-07-20T02:15:39;17.20;99.90
17992;DHT22;9121;50.926;5.340;2023-07-20T02:18:06;17.30;99.90
17992;DHT22;9121;50.926;5.340;2023-07-20T02:20:34;17.30;99.90
17992;DHT22;9121;50.926;5.340;2023-07-20T02:23:01;17.40;99.90
17992;DHT22;9121;50.926;5.340;2023-07-20T02:25:28;17.40;99.90
17992;DHT22;9121;50.926;5.340;2023-07-20T02:27:56;17.40;99.90
17992;DHT22;9121;50.926;5.340;2023-07-20T02:30:23;17.40;99.90
17992;DHT22;9121;50.926;5.340;2023-07-20T02:32:50;17.60;99.90
17992;DHT22;9121;50.926;5.340;2023-07-20T02:35:17;17.50;99.90
17992;DHT22;9121;50.926;5.340;2023-07-20T02:37:45;17.50;99.90
17992;DHT22;9121;50.926;5.340;2023-07-20T02:40:12;17.40;99.90
17992;DHT22;9121;50.926;5.340;2023-07-20T02:42:39;17.30;99.90
17992;DHT22;9121;50.926;5.340;2023-07-20T02:45:07;17.30;99.90
17992;DHT22;9121;50.926;5.340;2023-07-20T02:47:34;17.30;99.90
17992;DHT22;9121;50.926;5.340;2023-07-20T02:50:01;17.30;99.90
17992;DHT22;9121;50.926;5.340;2023-07-20T02:52:28;17.30;99.90
17992;DHT22;9121;50.926;5.340;2023-07-20T02:54:57;17.30;99.90
17992;DHT22;9121;50.926;5.340;2023-07-20T02:57:24;17.20;99.90
17992;DHT22;9121;50.926;5.340;2023-07-20T02:59:51;17.10;99.90
17992;DHT22;9121;50.926;5.340;2023-07-20T03:02:18;17.20;99.90
17992;DHT22;9121;50.926;5.340;2023-07-20T03:04:45;17.10;99.90
17992;DHT22;9121;50.926;5.340;2023-07-20T03:07:12;17.10;99.90
17992;DHT22;9121;50.926;5.340;2023-07-20T03:09:38;17.10;99.90
17992;DHT22;9121;50.926;5.340;2023-07-20T03:12:08;17.10;99.90
17992;DHT22;9121;50.926;5.340;2023-07-20T03:14:35;17.00;99.90
17992;DHT22;9121;50.926;5.340;2023-07-20T03:17:02;17.00;99.90
17992;DHT22;9121;50.926;5.340;2023-07-20T03:19:30;17.00;99.90
17992;DHT22;9121;50.926;5.340;2023-07-20T03:21:57;17.10;99.90
17992;DHT22;9121;50.926;5.340;2023-07-20T03:24:24;17.00;99.90
17992;DHT22;9121;50.926;5.340;2023-07-20T03:26:51;17.00;99.90
17992;DHT22;9121;50.926;5.340;2023-07-20T03:29:19;17.00;99.90
17992;DHT22;9121;50.926;5.340;2023-07-20T03:31:46;17.10;99.90
17992;DHT22;9121;50.926;5.340;2023-07-20T03:34:13;17.20;99.90
17992;DHT22;9121;50.926;5.340;2023-07-20T03:36:40;17.30;99.90
17992;DHT22;9121;50.926;5.340;2023-07-20T03:39:07;17.40;99.90
17992;DHT22;9121;50.926;5.340;2023-07-20T03:41:34;17.40;99.90
17992;DHT22;9121;50.926;5.340;2023-07-20T03:44:02;17.40;99.90
17992;DHT22;9121;50.926;5.340;2023-07-20T03:46:31;17.30;99.90
17992;DHT22;9121;50.926;5.340;2023-07-20T03:48:59;17.40;99.90
17992;DHT22;9121;50.926;5.340;2023-07-20T03:51:26;17.40;99.90
17992;DHT22;9121;50.926;5.340;2023-07-20T03:53:53;17.40;99.90
17992;DHT22;9121;50.926;5.340;2023-07-20T03:56:20;17.30;99.90
17992;DHT22;9121;50.926;5.340;2023-07-20T03:58:47;17.40;99.90
17992;DHT22;9121;50.926;5.340;2023-07-20T04:01:14;17.30;99.90
17992;DHT22;9121;50.926;5.340;2023-07-20T04:03:43;17.30;99.90
17992;DHT22;9121;50.926;5.340;2023-07-20T04:06:10;17.30;99.90
17992;DHT22;9121;50.926;5.340;2023-07-20T04:08:37;17.40;99.90
17992;DHT22;9121;50.926;5.340;2023-07-20T04:11:04;17.40;99.90
17992;DHT22;9121;50.926;5.340;2023-07-20T04:13:31;17.40;99.90
17992;DHT22;9121;50.926;5.340;2023-07-20T04:16:00;17.30;99.90
17992;DHT22;9121;50.926;5.340;2023-07-20T04:18:28;17.40;99.90
17992;DHT22;9121;50.926;5.340;2023-07-20T04:20:57;17.40;99.90
17992;DHT22;9121;50.926;5.340;2023-07-20T04:23:23;17.40;99.90
17992;DHT22;9121;50.926;5.340;2023-07-20T04:25:51;17.30;99.90
17992;DHT22;9121;50.926;5.340;2023-07-20T04:28:18;17.20;99.90
17992;DHT22;9121;50.926;5.340;2023-07-20T04:30:48;17.30;99.90
17992;DHT22;9121;50.926;5.340;2023-07-20T04:33:15;17.40;99.90
17992;DHT22;9121;50.926;5.340;2023-07-20T04:35:50;17.30;99.90
17992;DHT22;9121;50.926;5.340;2023-07-20T04:38:19;17.40;99.90
17992;DHT22;9121;50.926;5.340;2023-07-20T04:40:46;17.50;99.90
17992;DHT22;9121;50.926;5.340;2023-07-20T04:43:14;17.50;99.90
17992;DHT22;9121;50.926;5.340;2023-07-20T04:45:41;17.40;99.90
17992;DHT22;9121;50.926;5.340;2023-07-20T04:48:10;17.30;99.90
17992;DHT22;9121;50.926;5.340;2023-07-20T04:50:38;17.50;99.90
17992;DHT22;9121;50.926;5.340;2023-07-20T04:53:05;17.50;99.90
17992;DHT22;9121;50.926;5.340;2023-07-20T04:55:33;17.40;99.90
17992;DHT22;9121;50.926;5.340;2023-07-20T04:58:01;17.50;99.90
17992;DHT22;9121;50.926;5.340;2023-07-20T05:00:29;17.50;99.90
17992;DHT22;9121;50.926;5.340;2023-07-20T05:02:56;17.50;99.90
17992;DHT22;9121;50.926;5.340;2023-07-20T05:05:23;17.60;99.90
17992;DHT22;9121;50.926;5.340;2023-07-20T05:07:50;17.50;99.90
17992;DHT22;9121;50.926;5.340;2023-07-20T05:10:17;17.50;99.90
17992;DHT22;9121;50.926;5.340;2023-07-20T05:12:46;17.40;99.90
17992;DHT22;9121;50.926;5.340;2023-07-20T05:15:13;17.40;99.90
17992;DHT22;9121;50.926;5.340;2023-07-20T05:17:40;17.40;99.90
17992;DHT22;9121;50.926;5.340;2023-07-20T05:20:07;17.40;99.90
17992;DHT22;9121;50.926;5.340;2023-07-20T05:22:38;17.40;99.90
17992;DHT22;9121;50.926;5.340;2023-07-20T05:25:07;17.50;99.90
17992;DHT22;9121;50.926;5.340;2023-07-20T05:27:36;17.50;99.90
17992;DHT22;9121;50.926;5.340;2023-07-20T05:30:06;17.50;99.90
17992;DHT22;9121;50.926;5.340;2023-07-20T05:32:33;17.60;99.90
17992;DHT22;9121;50.926;5.340;2023-07-20T05:35:00;17.80;99.90
17992;DHT22;9121;50.926;5.340;2023-07-20T05:37:28;17.80;99.90
17992;DHT22;9121;50.926;5.340;2023-07-20T05:39:55;17.80;99.90
17992;DHT22;9121;50.926;5.340;2023-07-20T05:42:22;17.90;99.90
17992;DHT22;9121;50.926;5.340;2023-07-20T05:44:49;18.00;99.90
17992;DHT22;9121;50.926;5.340;2023-07-20T05:47:19;18.10;99.90
17992;DHT22;9121;50.926;5.340;2023-07-20T05:49:47;18.10;99.90
17992;DHT22;9121;50.926;5.340;2023-07-20T05:52:14;18.20;99.90
17992;DHT22;9121;50.926;5.340;2023-07-20T05:54:41;18.20;99.90
17992;DHT22;9121;50.926;5.340;2023-07-20T05:57:08;18.20;99.90
17992;DHT22;9121;50.926;5.340;2023-07-20T05:59:35;18.30;99.90
17992;DHT22;9121;50.926;5.340;2023-07-20T06:02:02;18.40;99.90
17992;DHT22;9121;50.926;5.340;2023-07-20T06:04:30;18.40;99.90
17992;DHT22;9121;50.926;5.340;2023-07-20T06:06:57;18.50;99.90
17992;DHT22;9121;50.926;5.340;2023-07-20T06:09:24;18.60;99.90
17992;DHT22;9121;50.926;5.340;2023-07-20T06:11:52;18.70;99.90
17992;DHT22;9121;50.926;5.340;2023-07-20T06:14:18;18.70;99.90
17992;DHT22;9121;50.926;5.340;2023-07-20T06:16:45;18.70;99.90
17992;DHT22;9121;50.926;5.340;2023-07-20T06:19:12;18.70;99.90
17992;DHT22;9121;50.926;5.340;2023-07-20T06:21:41;18.70;99.90
17992;DHT22;9121;50.926;5.340;2023-07-20T06:24:07;18.70;99.90
17992;DHT22;9121;50.926;5.340;2023-07-20T06:26:34;18.70;99.90
17992;DHT22;9121;50.926;5.340;2023-07-20T06:29:04;18.80;99.90
17992;DHT22;9121;50.926;5.340;2023-07-20T06:31:32;18.90;99.90
17992;DHT22;9121;50.926;5.340;2023-07-20T06:33:59;19.00;99.90
17992;DHT22;9121;50.926;5.340;2023-07-20T06:36:26;19.00;99.90
17992;DHT22;9121;50.926;5.340;2023-07-20T06:38:55;18.90;99.90
17992;DHT22;9121;50.926;5.340;2023-07-20T06:41:22;18.90;99.90
17992;DHT22;9121;50.926;5.340;2023-07-20T06:43:50;18.80;99.90
17992;DHT22;9121;50.926;5.340;2023-07-20T06:46:18;18.90;99.90
17992;DHT22;9121;50.926;5.340;2023-07-20T06:48:45;19.00;99.90
17992;DHT22;9121;50.926;5.340;2023-07-20T06:51:12;19.10;99.90
17992;DHT22;9121;50.926;5.340;2023-07-20T06:53:38;19.30;99.90
17992;DHT22;9121;50.926;5.340;2023-07-20T06:56:07;19.20;99.90
17992;DHT22;9121;50.926;5.340;2023-07-20T06:58:34;19.30;99.90
17992;DHT22;9121;50.926;5.340;2023-07-20T07:01:05;19.40;99.90
17992;DHT22;9121;50.926;5.340;2023-07-20T07:03:32;19.50;99.90
17992;DHT22;9121;50.926;5.340;2023-07-20T07:05:59;19.60;99.90
17992;DHT22;9121;50.926;5.340;2023-07-20T07:08:26;19.70;99.90
17992;DHT22;9121;50.926;5.340;2023-07-20T07:10:53;19.70;99.90
17992;DHT22;9121;50.926;5.340;2023-07-20T07:13:21;19.80;99.90
17992;DHT22;9121;50.926;5.340;2023-07-20T07:15:48;19.80;99.90
17992;DHT22;9121;50.926;5.340;2023-07-20T07:18:15;19.80;99.90
17992;DHT22;9121;50.926;5.340;2023-07-20T07:20:50;19.90;99.90
17992;DHT22;9121;50.926;5.340;2023-07-20T07:23:17;19.90;99.90
17992;DHT22;9121;50.926;5.340;2023-07-20T07:25:45;19.90;99.90
17992;DHT22;9121;50.926;5.340;2023-07-20T07:28:12;19.80;99.90
17992;DHT22;9121;50.926;5.340;2023-07-20T07:30:41;19.70;99.90
17992;DHT22;9121;50.926;5.340;2023-07-20T07:33:08;19.70;99.90
17992;DHT22;9121;50.926;5.340;2023-07-20T07:35:35;19.60;99.90
17992;DHT22;9121;50.926;5.340;2023-07-20T07:38:02;19.60;99.90
17992;DHT22;9121;50.926;5.340;2023-07-20T07:40:29;19.40;99.90
17992;DHT22;9121;50.926;5.340;2023-07-20T07:42:56;19.50;99.90
17992;DHT22;9121;50.926;5.340;2023-07-20T07:45:23;19.70;99.90
17992;DHT22;9121;50.926;5.340;2023-07-20T07:47:51;19.80;99.90
17992;DHT22;9121;50.926;5.340;2023-07-20T07:50:18;19.80;99.90
17992;DHT22;9121;50.926;5.340;2023-07-20T07:52:46;19.80;99.90
17992;DHT22;9121;50.926;5.340;2023-07-20T07:55:13;20.00;99.90
17992;DHT22;9121;50.926;5.340;2023-07-20T07:57:42;20.00;99.90
17992;DHT22;9121;50.926;5.340;2023-07-20T08:00:10;20.20;99.90
17992;DHT22;9121;50.926;5.340;2023-07-20T08:02:40;20.40;99.90
17992;DHT22;9121;50.926;5.340;2023-07-20T08:05:09;20.50;99.90
17992;DHT22;9121;50.926;5.340;2023-07-20T08:07:36;20.50;99.90
17992;DHT22;9121;50.926;5.340;2023-07-20T08:10:04;20.70;99.90
17992;DHT22;9121;50.926;5.340;2023-07-20T08:12:31;20.70;99.90
17992;DHT22;9121;50.926;5.340;2023-07-20T08:14:58;20.70;99.90
17992;DHT22;9121;50.926;5.340;2023-07-20T08:17:25;20.90;99.90
17992;DHT22;9121;50.926;5.340;2023-07-20T08:19:52;20.90;99.90
17992;DHT22;9121;50.926;5.340;2023-07-20T08:22:21;21.00;99.90
17992;DHT22;9121;50.926;5.340;2023-07-20T08:24:48;20.90;99.90
17992;DHT22;9121;50.926;5.340;2023-07-20T08:27:14;20.90;99.90
17992;DHT22;9121;50.926;5.340;2023-07-20T08:29:41;21.00;99.90
17992;DHT22;9121;50.926;5.340;2023-07-20T08:32:08;20.90;99.90
17992;DHT22;9121;50.926;5.340;2023-07-20T08:34:35;20.90;99.90
17992;DHT22;9121;50.926;5.340;2023-07-20T08:37:02;20.90;99.90
17992;DHT22;9121;50.926;5.340;2023-07-20T08:39:31;20.90;99.90
17992;DHT22;9121;50.926;5.340;2023-07-20T08:41:59;20.80;99.90
17992;DHT22;9121;50.926;5.340;2023-07-20T08:44:30;20.90;99.90
17992;DHT22;9121;50.926;5.340;2023-07-20T08:46:59;20.90;99.90
17992;DHT22;9121;50.926;5.340;2023-07-20T08:49:28;20.90;99.90
17992;DHT22;9121;50.926;5.340;2023-07-20T08:51:56;21.00;99.90
17992;DHT22;9121;50.926;5.340;2023-07-20T08:54:25;21.00;99.90
17992;DHT22;9121;50.926;5.340;2023-07-20T08:56:57;21.00;99.90
17992;DHT22;9121;50.926;5.340;2023-07-20T08:59:24;21.00;99.90
17992;DHT22;9121;50.926;5.340;2023-07-20T09:01:52;21.00;99.90
17992;DHT22;9121;50.926;5.340;2023-07-20T09:04:19;21.20;99.90
17992;DHT22;9121;50.926;5.340;2023-07-20T09:06:47;21.30;99.90
17992;DHT22;9121;50.926;5.340;2023-07-20T09:09:15;21.10;99.90
17992;DHT22;9121;50.926;5.340;2023-07-20T09:11:42;21.00;99.90
17992;DHT22;9121;50.926;5.340;2023-07-20T09:14:10;21.10;99.90
17992;DHT22;9121;50.926;5.340;2023-07-20T09:16:47;21.00;99.90
17992;DHT22;9121;50.926;5.340;2023-07-20T09:19:15;21.00;99.90
17992;DHT22;9121;50.926;5.340;2023-07-20T09:21:44;21.10;99.90
17992;DHT22;9121;50.926;5.340;2023-07-20T09:24:12;21.30;99.90
17992;DHT22;9121;50.926;5.340;2023-07-20T09:26:43;21.30;99.90
17992;DHT22;9121;50.926;5.340;2023-07-20T09:29:12;21.30;99.90
17992;DHT22;9121;50.926;5.340;2023-07-20T09:31:39;21.30;99.90
17992;DHT22;9121;50.926;5.340;2023-07-20T09:34:06;21.40;99.90
17992;DHT22;9121;50.926;5.340;2023-07-20T09:36:34;21.50;99.90
17992;DHT22;9121;50.926;5.340;2023-07-20T09:39:03;21.60;99.90
17992;DHT22;9121;50.926;5.340;2023-07-20T09:41:30;21.70;99.90
17992;DHT22;9121;50.926;5.340;2023-07-20T09:44:07;21.70;99.90
17992;DHT22;9121;50.926;5.340;2023-07-20T09:46:44;21.80;99.90
17992;DHT22;9121;50.926;5.340;2023-07-20T09:49:11;21.90;99.90
17992;DHT22;9121;50.926;5.340;2023-07-20T09:51:38;21.80;99.90
17992;DHT22;9121;50.926;5.340;2023-07-20T09:54:05;21.60;99.90
17992;DHT22;9121;50.926;5.340;2023-07-20T09:56:33;21.70;99.90
17992;DHT22;9121;50.926;5.340;2023-07-20T09:59:00;22.00;99.90
17992;DHT22;9121;50.926;5.340;2023-07-20T10:01:29;22.20;99.90
17992;DHT22;9121;50.926;5.340;2023-07-20T10:03:59;22.30;99.90
17992;DHT22;9121;50.926;5.340;2023-07-20T10:06:28;22.10;99.90
17992;DHT22;9121;50.926;5.340;2023-07-20T10:09:00;22.10;99.90
17992;DHT22;9121;50.926;5.340;2023-07-20T10:11:30;22.30;99.90
17992;DHT22;9121;50.926;5.340;2023-07-20T10:13:59;22.40;99.90
17992;DHT22;9121;50.926;5.340;2023-07-20T10:16:31;22.50;99.90
17992;DHT22;9121;50.926;5.340;2023-07-20T10:19:05;22.60;99.90
17992;DHT22;9121;50.926;5.340;2023-07-20T10:21:35;22.70;99.90
17992;DHT22;9121;50.926;5.340;2023-07-20T10:24:05;22.80;99.90
17992;DHT22;9121;50.926;5.340;2023-07-20T10:26:33;23.00;99.90
17992;DHT22;9121;50.926;5.340;2023-07-20T10:29:01;23.20;99.90
17992;DHT22;9121;50.926;5.340;2023-07-20T10:31:28;23.10;99.90
17992;DHT22;9121;50.926;5.340;2023-07-20T10:33:57;22.90;99.90
17992;DHT22;9121;50.926;5.340;2023-07-20T10:36:26;22.60;99.90
17992;DHT22;9121;50.926;5.340;2023-07-20T10:38:55;22.60;99.90
17992;DHT22;9121;50.926;5.340;2023-07-20T10:41:28;22.70;99.90
17992;DHT22;9121;50.926;5.340;2023-07-20T10:43:58;22.80;99.90
17992;DHT22;9121;50.926;5.340;2023-07-20T10:46:35;22.80;99.90
17992;DHT22;9121;50.926;5.340;2023-07-20T10:49:09;23.00;99.90
17992;DHT22;9121;50.926;5.340;2023-07-20T10:51:41;23.20;99.90
17992;DHT22;9121;50.926;5.340;2023-07-20T10:54:09;23.20;99.90
17992;DHT22;9121;50.926;5.340;2023-07-20T10:56:57;23.20;99.90
17992;DHT22;9121;50.926;5.340;2023-07-20T10:59:37;23.20;99.90
17992;DHT22;9121;50.926;5.340;2023-07-20T11:02:06;23.00;99.90
17992;DHT22;9121;50.926;5.340;2023-07-20T11:04:40;22.90;99.90
17992;DHT22;9121;50.926;5.340;2023-07-20T11:07:10;23.00;99.90
17992;DHT22;9121;50.926;5.340;2023-07-20T11:09:37;23.30;99.90
17992;DHT22;9121;50.926;5.340;2023-07-20T11:12:12;23.50;99.90
17992;DHT22;9121;50.926;5.340;2023-07-20T11:14:41;23.70;99.90
17992;DHT22;9121;50.926;5.340;2023-07-20T11:17:12;23.60;99.90
17992;DHT22;9121;50.926;5.340;2023-07-20T11:19:40;23.70;99.90
17992;DHT22;9121;50.926;5.340;2023-07-20T11:22:07;23.80;99.90
17992;DHT22;9121;50.926;5.340;2023-07-20T11:24:38;24.00;99.90
17992;DHT22;9121;50.926;5.340;2023-07-20T11:27:06;24.10;99.90
17992;DHT22;9121;50.926;5.340;2023-07-20T11:29:34;24.20;99.90
17992;DHT22;9121;50.926;5.340;2023-07-20T11:32:02;24.40;99.90
17992;DHT22;9121;50.926;5.340;2023-07-20T11:34:30;24.50;99.90
17992;DHT22;9121;50.926;5.340;2023-07-20T11:36:58;24.50;99.90
17992;DHT22;9121;50.926;5.340;2023-07-20T11:39:25;24.30;99.90
17992;DHT22;9121;50.926;5.340;2023-07-20T11:41:56;24.40;99.90
17992;DHT22;9121;50.926;5.340;2023-07-20T11:44:24;24.50;99.90
17992;DHT22;9121;50.926;5.340;2023-07-20T11:47:00;24.60;99.90
17992;DHT22;9121;50.926;5.340;2023-07-20T11:49:28;24.80;99.90
17992;DHT22;9121;50.926;5.340;2023-07-20T11:51:56;24.80;99.90
17992;DHT22;9121;50.926;5.340;2023-07-20T11:54:24;25.00;99.90
17992;DHT22;9121;50.926;5.340;2023-07-20T11:56:55;25.30;99.90
17992;DHT22;9121;50.926;5.340;2023-07-20T11:59:22;25.40;99.90
17992;DHT22;9121;50.926;5.340;2023-07-20T12:01:49;25.40;99.90
17992;DHT22;9121;50.926;5.340;2023-07-20T12:04:16;25.50;99.90
17992;DHT22;9121;50.926;5.340;2023-07-20T12:06:45;25.80;99.90
17992;DHT22;9121;50.926;5.340;2023-07-20T12:09:14;25.90;99.90
17992;DHT22;9121;50.926;5.340;2023-07-20T12:11:43;25.90;99.90
17992;DHT22;9121;50.926;5.340;2023-07-20T12:14:12;25.50;99.90
17992;DHT22;9121;50.926;5.340;2023-07-20T12:16:39;25.70;99.90
17992;DHT22;9121;50.926;5.340;2023-07-20T12:19:07;25.60;99.90
17992;DHT22;9121;50.926;5.340;2023-07-20T12:21:34;25.80;99.90
17992;DHT22;9121;50.926;5.340;2023-07-20T12:24:03;25.90;99.90
17992;DHT22;9121;50.926;5.340;2023-07-20T12:26:30;26.30;99.90
17992;DHT22;9121;50.926;5.340;2023-07-20T12:28:58;26.70;98.80
17992;DHT22;9121;50.926;5.340;2023-07-20T12:31:27;27.00;99.10
17992;DHT22;9121;50.926;5.340;2023-07-20T12:33:57;26.90;98.10
17992;DHT22;9121;50.926;5.340;2023-07-20T12:36:24;27.10;97.80
17992;DHT22;9121;50.926;5.340;2023-07-20T12:38:52;27.30;97.90
17992;DHT22;9121;50.926;5.340;2023-07-20T12:41:19;27.00;98.40
17992;DHT22;9121;50.926;5.340;2023-07-20T12:43:45;26.80;96.90
17992;DHT22;9121;50.926;5.340;2023-07-20T12:46:13;26.50;97.10
17992;DHT22;9121;50.926;5.340;2023-07-20T12:48:41;26.40;97.60
17992;DHT22;9121;50.926;5.340;2023-07-20T12:51:09;26.60;97.60
17992;DHT22;9121;50.926;5.340;2023-07-20T12:53:37;26.60;96.10
17992;DHT22;9121;50.926;5.340;2023-07-20T12:56:05;26.90;95.70
17992;DHT22;9121;50.926;5.340;2023-07-20T12:58:32;26.80;94.80
17992;DHT22;9121;50.926;5.340;2023-07-20T13:00:59;26.60;95.70
17992;DHT22;9121;50.926;5.340;2023-07-20T13:03:26;26.80;95.80
17992;DHT22;9121;50.926;5.340;2023-07-20T13:05:54;26.80;96.10
17992;DHT22;9121;50.926;5.340;2023-07-20T13:08:21;26.80;96.20
17992;DHT22;9121;50.926;5.340;2023-07-20T13:10:50;26.70;96.10
17992;DHT22;9121;50.926;5.340;2023-07-20T13:13:18;26.30;95.80
17992;DHT22;9121;50.926;5.340;2023-07-20T13:15:45;26.10;96.60
17992;DHT22;9121;50.926;5.340;2023-07-20T13:18:13;26.10;96.00
17992;DHT22;9121;50.926;5.340;2023-07-20T13:20:40;26.00;96.40
17992;DHT22;9121;50.926;5.340;2023-07-20T13:23:09;25.90;96.60
17992;DHT22;9121;50.926;5.340;2023-07-20T13:25:36;25.90;95.80
17992;DHT22;9121;50.926;5.340;2023-07-20T13:28:04;25.90;94.40
17992;DHT22;9121;50.926;5.340;2023-07-20T13:30:31;25.70;94.70
17992;DHT22;9121;50.926;5.340;2023-07-20T13:32:59;25.70;94.90
17992;DHT22;9121;50.926;5.340;2023-07-20T13:35:28;25.60;95.40
17992;DHT22;9121;50.926;5.340;2023-07-20T13:37:55;26.00;95.80
17992;DHT22;9121;50.926;5.340;2023-07-20T13:40:23;26.90;94.50
17992;DHT22;9121;50.926;5.340;2023-07-20T13:42:50;28.00;94.10
17992;DHT22;9121;50.926;5.340;2023-07-20T13:45:17;28.40;93.00
17992;DHT22;9121;50.926;5.340;2023-07-20T13:47:44;29.10;90.90
17992;DHT22;9121;50.926;5.340;2023-07-20T13:50:11;29.00;89.60
17992;DHT22;9121;50.926;5.340;2023-07-20T13:52:38;28.60;90.40
17992;DHT22;9121;50.926;5.340;2023-07-20T13:55:05;28.40;90.90
17992;DHT22;9121;50.926;5.340;2023-07-20T13:57:33;29.10;89.40
17992;DHT22;9121;50.926;5.340;2023-07-20T14:00:00;29.60;87.70
17992;DHT22;9121;50.926;5.340;2023-07-20T14:02:30;29.90;85.10
17992;DHT22;9121;50.926;5.340;2023-07-20T14:04:57;30.40;84.50
17992;DHT22;9121;50.926;5.340;2023-07-20T14:07:25;30.90;83.40
17992;DHT22;9121;50.926;5.340;2023-07-20T14:09:52;30.60;81.00
17992;DHT22;9121;50.926;5.340;2023-07-20T14:12:19;29.60;82.70
17992;DHT22;9121;50.926;5.340;2023-07-20T14:14:47;29.20;83.80
17992;DHT22;9121;50.926;5.340;2023-07-20T14:17:14;29.50;82.90
17992;DHT22;9121;50.926;5.340;2023-07-20T14:19:41;29.50;81.20
17992;DHT22;9121;50.926;5.340;2023-07-20T14:22:09;29.50;81.90
17992;DHT22;9121;50.926;5.340;2023-07-20T14:24:36;30.30;81.60
17992;DHT22;9121;50.926;5.340;2023-07-20T14:27:04;30.90;77.40
17992;DHT22;9121;50.926;5.340;2023-07-20T14:29:31;31.40;75.60
17992;DHT22;9121;50.926;5.340;2023-07-20T14:31:59;31.90;74.60
17992;DHT22;9121;50.926;5.340;2023-07-20T14:34:26;32.30;74.20
17992;DHT22;9121;50.926;5.340;2023-07-20T14:36:53;31.50;72.60
17992;DHT22;9121;50.926;5.340;2023-07-20T14:39:21;30.90;74.00
17992;DHT22;9121;50.926;5.340;2023-07-20T14:41:50;31.20;73.30
17992;DHT22;9121;50.926;5.340;2023-07-20T14:44:17;30.20;72.30
17992;DHT22;9121;50.926;5.340;2023-07-20T14:46:44;29.60;72.80
17992;DHT22;9121;50.926;5.340;2023-07-20T14:49:12;29.80;72.50
17992;DHT22;9121;50.926;5.340;2023-07-20T14:51:39;29.40;73.10
17992;DHT22;9121;50.926;5.340;2023-07-20T14:54:09;29.50;73.70
17992;DHT22;9121;50.926;5.340;2023-07-20T14:56:38;29.60;73.50
17992;DHT22;9121;50.926;5.340;2023-07-20T14:59:05;29.50;73.30
17992;DHT22;9121;50.926;5.340;2023-07-20T15:01:32;29.50;73.80
17992;DHT22;9121;50.926;5.340;2023-07-20T15:03:59;29.30;72.90
17992;DHT22;9121;50.926;5.340;2023-07-20T15:06:28;29.20;75.00
17992;DHT22;9121;50.926;5.340;2023-07-20T15:08:56;28.80;74.40
17992;DHT22;9121;50.926;5.340;2023-07-20T15:11:23;28.80;73.60
17992;DHT22;9121;50.926;5.340;2023-07-20T15:13:50;28.60;75.70
17992;DHT22;9121;50.926;5.340;2023-07-20T15:16:17;28.30;76.10
17992;DHT22;9121;50.926;5.340;2023-07-20T15:18:44;28.20;76.00
17992;DHT22;9121;50.926;5.340;2023-07-20T15:21:11;27.90;77.00
17992;DHT22;9121;50.926;5.340;2023-07-20T15:23:39;27.60;77.90
17992;DHT22;9121;50.926;5.340;2023-07-20T15:26:06;27.20;78.00
17992;DHT22;9121;50.926;5.340;2023-07-20T15:28:33;27.10;80.00
17992;DHT22;9121;50.926;5.340;2023-07-20T15:31:01;26.90;80.40
17992;DHT22;9121;50.926;5.340;2023-07-20T15:33:28;26.60;80.90
17992;DHT22;9121;50.926;5.340;2023-07-20T15:35:57;26.60;81.50
17992;DHT22;9121;50.926;5.340;2023-07-20T15:38:24;26.50;84.10
17992;DHT22;9121;50.926;5.340;2023-07-20T15:40:53;26.40;86.20
17992;DHT22;9121;50.926;5.340;2023-07-20T15:43:21;26.10;87.60
17992;DHT22;9121;50.926;5.340;2023-07-20T15:45:48;26.10;87.80
17992;DHT22;9121;50.926;5.340;2023-07-20T15:48:16;25.90;88.90
17992;DHT22;9121;50.926;5.340;2023-07-20T15:50:45;25.90;89.50